Time;durP1;ratioP1;P1;durP2;ratioP2;P2;SDS_P1;SDS_P2;PMS_P1;PMS_P2;Temp;Humidity;BMP_temperature;BMP_pressure;BME280_temperature;BME280_humidity;BME280_pressure;Samples;Min_cycle;Max_cycle;Signal;HPM_P1;HPM_P2
2023/01/15 00:01:40;;;;;;;9.35;1.58;;;;;;;7.61;100.00;99665.81;2614746;36;20408;-58
2023/01/15 00:04:09;;;;;;;;;;;;;;;7.59;100.00;99662.47;2614868;31;20843;-58
2023/01/15 00:06:39;;;;;;;10.47;1.50;;;;;;;7.53;100.00;99670.06;2614839;36;20444;-59
2023/01/15 00:09:16;;;;;;;10.75;1.80;;;;;;;7.60;100.00;99670.34;2614671;36;20045;-56
2023/01/15 00:11:45;;;;;;;11.60;1.77;;;;;;;7.50;100.00;99662.31;2631270;36;20098;-59
2023/01/15 00:14:13;;;;;;;4.47;1.20;;;;;;;7.65;100.00;99657.34;2614487;36;20069;-58
2023/01/15 00:16:45;;;;;;;7.50;1.75;;;;;;;7.55;100.00;99664.56;2613861;36;20096;-59
2023/01/15 00:19:13;;;;;;;6.82;1.30;;;;;;;7.53;100.00;99663.88;2612862;36;20038;-58
2023/01/15 00:21:44;;;;;;;9.52;1.50;;;;;;;7.56;100.00;99663.59;2614779;36;20053;-57
2023/01/15 00:29:37;;;;;;;6.00;1.40;;;;;;;7.46;100.00;99658.25;2615530;36;20065;-57
2023/01/15 00:32:07;;;;;;;5.28;1.50;;;;;;;7.58;100.00;99655.41;2615224;36;20034;-59
2023/01/15 00:34:36;;;;;;;11.88;2.15;;;;;;;7.52;100.00;99662.19;2614438;36;22529;-56
2023/01/15 00:37:05;;;;;;;7.47;1.63;;;;;;;7.50;100.00;99659.66;2615059;36;20049;-58
2023/01/15 00:39:36;;;;;;;11.25;1.35;;;;;;;7.50;100.00;99653.47;2614974;36;20065;-57
2023/01/15 00:42:05;;;;;;;6.40;1.45;;;;;;;7.44;100.00;99654.06;2615723;36;20034;-56
2023/01/15 00:44:34;;;;;;;9.77;1.75;;;;;;;7.49;100.00;99663.34;2616336;31;20042;-57
2023/01/15 00:47:02;;;;;;;5.47;1.45;;;;;;;7.46;100.00;99654.75;2615521;36;20138;-56
2023/01/15 00:49:31;;;;;;;11.57;1.65;;;;;;;7.49;100.00;99651.75;2613305;36;20038;-56
2023/01/15 00:51:59;;;;;;;6.32;1.73;;;;;;;7.51;100.00;99660.50;2615375;36;20031;-61
2023/01/15 00:54:28;;;;;;;5.50;1.25;;;;;;;7.59;100.00;99657.09;2615868;36;20038;-53
2023/01/15 00:56:58;;;;;;;13.83;2.07;;;;;;;7.59;100.00;99651.75;2616333;36;20030;-58
2023/01/15 00:59:27;;;;;;;11.68;1.88;;;;;;;7.47;100.00;99649.25;2616283;36;20038;-58
2023/01/15 01:01:55;;;;;;;9.57;2.03;;;;;;;7.45;100.00;99669.09;2617414;31;20088;-57
2023/01/15 01:04:23;;;;;;;9.43;1.45;;;;;;;7.60;100.00;99664.97;2614398;36;20646;-57
2023/01/15 01:06:52;;;;;;;14.07;1.77;;;;;;;7.54;100.00;99665.56;2616249;36;20039;-57
2023/01/15 01:09:20;;;;;;;8.65;1.55;;;;;;;7.48;100.00;99663.47;2616466;36;20030;-57
2023/01/15 01:11:50;;;;;;;7.78;2.47;;;;;;;7.53;100.00;99661.19;2615639;36;20038;-57
2023/01/15 01:14:21;;;;;;;7.88;1.60;;;;;;;7.60;100.00;99670.34;2616121;36;20039;-56
2023/01/15 01:16:50;;;;;;;14.15;1.52;;;;;;;7.45;100.00;99661.06;2616404;36;20038;-57
2023/01/15 01:19:23;;;;;;;6.78;1.42;;;;;;;7.50;100.00;99674.88;2616664;31;20452;-55
2023/01/15 01:21:53;;;;;;;8.95;1.50;;;;;;;7.60;100.00;99654.28;2616058;36;20038;-58
2023/01/15 01:24:24;;;;;;;11.68;2.15;;;;;;;7.58;100.00;99666.94;2613839;36;20026;-57
2023/01/15 01:26:53;;;;;;;10.18;1.70;;;;;;;7.48;100.00;99655.44;2615314;36;20531;-56
2023/01/15 01:29:25;;;;;;;5.30;1.52;;;;;;;7.50;100.00;99669.53;2614445;36;20038;-57
2023/01/15 01:31:53;;;;;;;7.13;1.95;;;;;;;7.61;100.00;99664.00;2614960;36;20570;-58
2023/01/15 01:34:21;;;;;;;11.68;1.98;;;;;;;7.61;100.00;99671.16;2614539;36;20455;-58
2023/01/15 01:36:50;;;;;;;12.88;1.85;;;;;;;7.51;100.00;99666.69;2615213;36;20038;-58
2023/01/15 01:39:21;;;;;;;8.75;2.53;;;;;;;7.47;100.00;99664.47;2615803;36;20431;-58
2023/01/15 01:41:49;;;;;;;7.97;1.80;;;;;;;7.44;100.00;99672.78;2615618;36;20041;-57
2023/01/15 01:44:48;;;;;;;7.90;1.50;;;;;;;7.43;100.00;99687.16;2614816;36;20038;-57
2023/01/15 01:47:26;;;;;;;7.50;2.63;;;;;;;7.47;100.00;99688.56;2615314;54;20173;-57
2023/01/15 01:50:00;;;;;;;11.25;1.92;;;;;;;7.44;100.00;99695.03;2614176;31;20035;-59
2023/01/15 01:52:34;;;;;;;14.20;2.28;;;;;;;7.51;100.00;99693.47;2615564;31;20042;-58
2023/01/15 01:55:04;;;;;;;13.00;1.70;;;;;;;7.57;100.00;99692.06;2615617;36;20023;-60
2023/01/15 01:57:32;;;;;;;10.43;1.98;;;;;;;7.47;100.00;99699.28;2616491;36;20041;-58
2023/01/15 02:00:05;;;;;;;7.47;1.50;;;;;;;7.56;100.00;99701.06;2615149;36;20038;-56
2023/01/15 02:02:37;;;;;;;7.90;1.48;;;;;;;7.43;100.00;99698.69;2615840;36;20431;-56
2023/01/15 02:05:07;;;;;;;9.05;1.38;;;;;;;7.52;100.00;99691.63;2615539;31;20041;-58
2023/01/15 02:07:35;;;;;;;7.28;1.58;;;;;;;7.49;100.00;99689.25;2614563;36;20049;-57
2023/01/15 02:10:04;;;;;;;8.35;2.20;;;;;;;7.46;100.00;99678.84;2615916;36;20038;-58
2023/01/15 02:12:37;;;;;;;10.70;1.93;;;;;;;7.40;100.00;99676.75;2615461;36;20666;-58
2023/01/15 02:15:14;;;;;;;13.75;2.28;;;;;;;7.54;100.00;99687.00;2615873;31;20318;-59
2023/01/15 02:17:50;;;;;;;8.50;1.77;;;;;;;7.54;100.00;99671.75;2614472;36;20574;-59
2023/01/15 02:20:27;;;;;;;8.07;1.58;;;;;;;7.51;100.00;99687.28;2613947;36;20035;-58
2023/01/15 02:23:06;;;;;;;9.27;1.88;;;;;;;7.41;100.00;99681.13;2616677;36;20043;-58
2023/01/15 02:25:51;;;;;;;6.05;1.30;;;;;;;7.41;100.00;99673.09;2615675;36;20061;-58
2023/01/15 02:28:29;;;;;;;12.23;2.00;;;;;;;7.30;100.00;99669.59;2615596;36;20034;-58
2023/01/15 02:31:04;;;;;;;8.83;1.60;;;;;;;7.30;100.00;99658.88;2615782;36;20049;-58
2023/01/15 02:33:38;;;;;;;8.43;1.73;;;;;;;7.21;100.00;99665.06;2615315;36;20578;-58
2023/01/15 02:36:10;;;;;;;11.35;1.80;;;;;;;7.23;100.00;99656.91;2614904;36;20046;-58
2023/01/15 02:38:45;;;;;;;8.55;2.05;;;;;;;7.09;100.00;99656.38;2615919;36;20038;-59
2023/01/15 02:41:17;;;;;;;9.73;1.27;;;;;;;7.17;100.00;99653.00;2615757;36;20049;-58
2023/01/15 02:43:53;;;;;;;10.90;1.80;;;;;;;7.07;100.00;99652.16;2614600;36;20062;-57
2023/01/15 02:46:26;;;;;;;5.35;1.60;;;;;;;7.03;100.00;99653.44;2614341;36;20041;-57
2023/01/15 02:48:57;;;;;;;6.97;1.90;;;;;;;7.12;100.00;99650.72;2614455;36;20034;-58
2023/01/15 02:51:33;;;;;;;6.93;1.77;;;;;;;7.08;100.00;99653.84;2612795;31;20049;-59
2023/01/15 02:54:05;;;;;;;6.10;1.40;;;;;;;7.10;100.00;99651.88;2614247;36;20030;-58
2023/01/15 02:56:36;;;;;;;10.70;1.60;;;;;;;7.11;100.00;99650.88;2615560;31;20037;-58
2023/01/15 02:59:12;;;;;;;7.97;1.80;;;;;;;7.12;100.00;99652.56;2617259;31;20538;-59
2023/01/15 03:01:46;;;;;;;8.90;1.65;;;;;;;7.15;100.00;99662.97;2615692;36;20034;-58
2023/01/15 03:04:21;;;;;;;8.65;2.20;;;;;;;7.21;100.00;99665.06;2614912;36;20045;-58
2023/01/15 03:06:54;;;;;;;6.70;1.45;;;;;;;7.13;100.00;99652.41;2615607;36;20443;-58
2023/01/15 03:09:23;;;;;;;13.88;1.60;;;;;;;7.01;100.00;99654.41;2615902;36;20034;-59
2023/01/15 03:12:00;;;;;;;8.82;1.85;;;;;;;7.13;100.00;99656.94;2616077;36;20490;-59
2023/01/15 03:14:37;;;;;;;7.93;1.83;;;;;;;7.15;100.00;99647.75;2615833;31;20034;-59
2023/01/15 03:17:13;;;;;;;11.43;2.28;;;;;;;7.11;100.00;99650.88;2616389;36;20033;-59
2023/01/15 03:19:49;;;;;;;7.40;2.17;;;;;;;7.03;100.00;99651.59;2616202;36;20037;-59
2023/01/15 03:22:22;;;;;;;9.63;1.88;;;;;;;7.01;100.00;99648.22;2616196;36;20130;-59
2023/01/15 03:24:56;;;;;;;7.05;1.33;;;;;;;7.05;100.00;99654.13;2616037;36;20585;-59
2023/01/15 03:27:25;;;;;;;10.43;1.70;;;;;;;7.10;100.00;99650.03;2614326;36;20622;-58
2023/01/15 03:30:02;;;;;;;9.02;1.73;;;;;;;7.09;100.00;99650.19;2616419;36;20038;-59
2023/01/15 03:32:32;;;;;;;10.05;3.30;;;;;;;7.13;100.00;99651.59;2615551;36;20027;-58
2023/01/15 03:35:02;;;;;;;;;;;;;;;7.07;100.00;99644.16;2615740;36;20054;-58
2023/01/15 03:37:31;;;;;;;8.38;1.50;;;;;;;6.99;100.00;99636.81;2614659;36;19947;-59
2023/01/15 03:40:01;;;;;;;7.95;1.33;;;;;;;6.95;100.00;99633.59;2615623;36;20026;-59
2023/01/15 03:42:43;;;;;;;7.10;1.48;;;;;;;6.92;100.00;99639.22;2615502;36;20042;-58
2023/01/15 03:45:19;;;;;;;5.35;1.45;;;;;;;6.96;100.00;99643.31;2615178;31;20031;-57
2023/01/15 03:47:59;;;;;;;11.20;1.85;;;;;;;6.99;100.00;99640.34;2615379;36;20527;-57
2023/01/15 03:50:29;;;;;;;;;;;;;;;6.93;100.00;99640.06;2615454;36;20030;-57
2023/01/15 03:53:08;;;;;;;8.63;1.73;;;;;;;6.96;100.00;99640.63;2616595;36;20442;-59
2023/01/15 03:55:44;;;;;;;15.13;2.72;;;;;;;6.83;100.00;99648.09;2615742;36;20041;-57
2023/01/15 03:58:15;;;;;;;9.18;1.80;;;;;;;6.88;100.00;99640.50;2616158;31;20041;-56
2023/01/15 04:00:51;;;;;;;10.45;1.38;;;;;;;6.83;100.00;99648.09;2613760;36;20038;-56
2023/01/15 04:03:21;;;;;;;10.30;1.63;;;;;;;6.87;100.00;99652.16;2614749;36;20049;-58
2023/01/15 04:05:51;;;;;;;7.03;1.75;;;;;;;6.77;100.00;99636.16;2615830;36;20026;-57
2023/01/15 04:08:21;;;;;;;10.40;1.73;;;;;;;6.85;100.00;99632.75;2613902;36;20427;-58
2023/01/15 04:10:57;;;;;;;12.88;1.50;;;;;;;6.82;100.00;99649.09;2615258;36;20026;-59
2023/01/15 04:13:26;;;;;;;7.55;2.25;;;;;;;6.76;100.00;99633.63;2615231;36;20042;-58
2023/01/15 04:15:57;;;;;;;5.18;1.25;;;;;;;6.74;100.00;99635.56;2615396;36;20039;-58
2023/01/15 04:18:26;;;;;;;6.53;1.45;;;;;;;6.73;100.00;99637.41;2614395;31;20118;-58
2023/01/15 04:20:54;;;;;;;6.63;1.42;;;;;;;6.74;100.00;99630.22;2615622;36;20038;-58
2023/01/15 04:23:23;;;;;;;10.30;1.92;;;;;;;6.75;100.00;99637.28;2615543;36;20073;-58
2023/01/15 04:25:52;;;;;;;10.35;1.55;;;;;;;6.74;100.00;99635.56;2616024;36;20037;-58
2023/01/15 04:28:20;;;;;;;6.63;1.40;;;;;;;6.68;100.00;99636.16;2615378;36;20318;-58
2023/01/15 04:30:48;;;;;;;10.95;2.05;;;;;;;6.66;100.00;99639.78;2615442;36;20034;-58
2023/01/15 04:33:19;;;;;;;9.38;2.20;;;;;;;6.79;100.00;99634.16;2613923;36;20539;-57
2023/01/15 04:35:48;;;;;;;8.35;1.55;;;;;;;6.77;100.00;99632.63;2615131;36;20038;-58
2023/01/15 04:38:16;;;;;;;7.68;1.52;;;;;;;6.71;100.00;99633.19;2615565;36;20065;-57
2023/01/15 04:46:24;;;;;;;10.07;2.03;;;;;;;6.69;100.00;99636.00;2615327;36;20034;-58
2023/01/15 04:48:55;;;;;;;9.48;1.60;;;;;;;6.68;100.00;99630.78;2633383;36;20073;-58
2023/01/15 04:51:23;;;;;;;9.50;2.08;;;;;;;6.73;100.00;99623.19;2615873;36;20026;-58
2023/01/15 04:53:52;;;;;;;14.02;1.83;;;;;;;6.68;100.00;99626.28;2616129;36;20027;-59
2023/01/15 04:56:20;;;;;;;13.02;2.00;;;;;;;6.75;100.00;99627.41;2616270;36;20415;-58
2023/01/15 04:58:49;;;;;;;11.27;1.77;;;;;;;6.57;100.00;99616.59;2616808;36;20061;-59
2023/01/15 05:01:19;;;;;;;17.20;2.95;;;;;;;6.61;100.00;99617.13;2616656;36;20035;-58
2023/01/15 05:03:47;;;;;;;7.55;1.42;;;;;;;6.60;100.00;99618.97;2615848;36;20570;-58
2023/01/15 05:06:18;;;;;;;8.45;1.50;;;;;;;6.72;100.00;99627.69;2616381;31;20030;-59
2023/01/15 05:08:47;;;;;;;9.02;2.08;;;;;;;6.76;100.00;99622.91;2615198;36;20038;-58
2023/01/15 05:11:15;;;;;;;7.30;1.37;;;;;;;6.72;100.00;99627.69;2614961;36;20054;-58
2023/01/15 05:13:43;;;;;;;8.93;1.73;;;;;;;6.79;100.00;99628.00;2615834;36;20713;-58
2023/01/15 05:16:15;;;;;;;15.10;2.77;;;;;;;6.69;100.00;99616.44;2614131;36;20046;-58
2023/01/15 05:18:44;;;;;;;11.90;2.50;;;;;;;6.71;100.00;99614.47;2614920;36;20043;-59
2023/01/15 05:21:22;;;;;;;6.35;1.20;;;;;;;6.65;100.00;99611.38;2615248;36;20447;-58
2023/01/15 05:23:51;;;;;;;12.68;1.83;;;;;;;6.61;100.00;99611.78;2614821;36;20130;-59
2023/01/15 05:26:20;;;;;;;8.32;1.70;;;;;;;6.63;100.00;99605.31;2615262;36;20030;-59
2023/01/15 05:28:49;;;;;;;;;;;;;;;6.64;100.00;99601.66;2615234;36;20439;-59
2023/01/15 05:31:19;;;;;;;6.18;1.38;;;;;;;6.66;100.00;99602.38;2614610;36;19939;-59
2023/01/15 05:33:49;;;;;;;7.88;1.30;;;;;;;6.46;100.00;99614.03;2614704;36;20034;-58
2023/01/15 05:36:22;;;;;;;6.63;1.50;;;;;;;6.46;100.00;99598.88;2614097;36;20543;-57
2023/01/15 05:38:51;;;;;;;3.60;0.90;;;;;;;6.54;100.00;99603.50;2614034;36;20708;-59
2023/01/15 05:44:04;;;;;;;8.55;1.40;;;;;;;6.48;100.00;99601.41;2613861;36;20045;-59
2023/01/15 05:46:35;;;;;;;4.80;1.67;;;;;;;6.58;100.00;99601.38;2613526;36;20034;-58
2023/01/15 05:49:04;;;;;;;8.63;1.60;;;;;;;6.49;100.00;99601.25;2613489;36;20080;-60
2023/01/15 05:51:36;;;;;;;9.23;1.55;;;;;;;6.45;100.00;99601.69;2614002;36;20026;-56
2023/01/15 05:54:05;;;;;;;6.55;1.85;;;;;;;6.41;100.00;99597.59;2614581;36;20038;-57
2023/01/15 05:56:36;;;;;;;6.53;1.30;;;;;;;6.33;100.00;99598.31;2615102;36;20834;-58
2023/01/15 05:59:04;;;;;;;4.88;1.42;;;;;;;6.40;100.00;99603.91;2615390;36;20600;-57
2023/01/15 06:01:33;;;;;;;7.72;1.75;;;;;;;6.46;100.00;99611.38;2614167;36;20407;-58
2023/01/15 06:04:02;;;;;;;7.57;1.33;;;;;;;6.49;100.00;99611.94;2612844;36;20557;-57
2023/01/15 06:06:31;;;;;;;6.20;1.20;;;;;;;6.32;100.00;99609.97;2613967;36;20050;-58
2023/01/15 06:09:02;;;;;;;6.65;1.58;;;;;;;6.22;100.00;99609.13;2615058;36;20031;-59
2023/01/15 06:11:31;;;;;;;9.38;1.80;;;;;;;6.12;100.00;99611.75;2613314;36;20559;-59
2023/01/15 06:14:00;;;;;;;7.85;1.70;;;;;;;6.09;100.00;99610.19;2614048;36;20038;-58
2023/01/15 06:16:28;;;;;;;8.68;2.35;;;;;;;6.18;100.00;99613.88;2614051;36;20023;-58
2023/01/15 06:18:57;;;;;;;8.77;1.50;;;;;;;6.24;100.00;99600.00;2612261;36;20061;-58
2023/01/15 06:21:25;;;;;;;7.78;1.58;;;;;;;6.25;100.00;99604.31;2613813;36;20038;-59
2023/01/15 06:23:57;;;;;;;9.82;1.63;;;;;;;6.20;100.00;99617.28;2615051;36;20038;-59
2023/01/15 06:26:29;;;;;;;4.57;1.40;;;;;;;6.15;100.00;99614.16;2613957;36;20049;-58
2023/01/15 06:28:58;;;;;;;5.93;1.10;;;;;;;6.11;100.00;99612.75;2613961;36;20037;-59
2023/01/15 06:31:27;;;;;;;;;;;;;;;6.17;100.00;99611.34;2614358;36;20593;-58
2023/01/15 06:33:56;;;;;;;7.07;1.45;;;;;;;6.13;100.00;99622.31;2614306;36;20034;-59
2023/01/15 06:36:27;;;;;;;9.02;1.30;;;;;;;6.06;100.00;99609.66;2615672;36;20057;-61
2023/01/15 06:38:55;;;;;;;5.63;0.90;;;;;;;6.12;100.00;99612.63;2614848;36;20034;-58
2023/01/15 06:49:36;;;;;;;8.38;1.10;;;;;;;5.93;100.00;99610.72;2612140;36;20034;-59
2023/01/15 06:52:06;;;;;;;6.40;1.40;;;;;;;5.89;100.00;99614.66;2614387;36;20037;-58
2023/01/15 06:54:34;;;;;;;7.47;1.20;;;;;;;5.89;100.00;99609.31;2614969;36;20039;-58
2023/01/15 06:57:03;;;;;;;8.02;1.80;;;;;;;5.93;100.00;99602.72;2615474;31;21099;-59
2023/01/15 06:59:34;;;;;;;7.63;1.27;;;;;;;5.84;100.00;99613.38;2614491;36;20042;-59
2023/01/15 07:02:02;;;;;;;7.38;1.35;;;;;;;5.95;100.00;99616.75;2614390;36;20038;-58
2023/01/15 07:04:31;;;;;;;4.80;1.17;;;;;;;5.94;100.00;99612.41;2614479;36;20042;-58
2023/01/15 07:06:59;;;;;;;7.32;1.50;;;;;;;5.83;100.00;99609.88;2615252;36;20045;-59
2023/01/15 07:09:27;;;;;;;6.07;1.98;;;;;;;5.75;100.00;99602.50;2614966;36;20042;-59
2023/01/15 07:11:56;;;;;;;7.82;1.27;;;;;;;5.80;100.00;99612.81;2614811;36;20031;-59
2023/01/15 07:14:26;;;;;;;4.78;1.35;;;;;;;5.70;100.00;99603.91;2614245;36;20042;-59
2023/01/15 07:16:58;;;;;;;5.57;1.00;;;;;;;5.71;100.00;99605.59;2614518;31;20062;-60
2023/01/15 07:19:26;;;;;;;3.45;0.90;;;;;;;5.71;100.00;99610.94;2614929;36;20442;-59
2023/01/15 07:21:55;;;;;;;9.32;1.42;;;;;;;5.61;100.00;99622.44;2615410;36;20871;-59
2023/01/15 07:24:23;;;;;;;5.40;1.10;;;;;;;5.55;100.00;99614.97;2614633;31;20041;-59
2023/01/15 07:26:51;;;;;;;4.50;1.23;;;;;;;5.54;100.00;99613.25;2615335;36;20041;-59
2023/01/15 07:29:20;;;;;;;10.73;1.80;;;;;;;5.59;100.00;99613.72;2615695;31;20459;-58
2023/01/15 07:31:49;;;;;;;5.53;1.05;;;;;;;5.53;100.00;99618.75;2613660;36;20049;-59
2023/01/15 07:34:20;;;;;;;8.20;1.00;;;;;;;5.47;100.00;99612.09;2613786;36;20042;-58
2023/01/15 07:36:48;;;;;;;7.07;1.10;;;;;;;5.52;100.00;99612.56;2613569;36;20296;-58
2023/01/15 07:39:17;;;;;;;6.05;1.35;;;;;;;5.53;100.00;99608.06;2615127;36;20061;-58
2023/01/15 07:50:01;;;;;;;7.28;1.60;;;;;;;5.61;100.00;99590.41;2614740;36;20569;-59
2023/01/15 07:52:29;;;;;;;7.75;1.60;;;;;;;5.47;100.00;99588.09;2613171;36;20031;-59
2023/01/15 07:54:58;;;;;;;12.45;1.77;;;;;;;5.66;100.00;99586.47;2614852;36;20037;-58
2023/01/15 07:57:26;;;;;;;8.65;1.27;;;;;;;5.64;100.00;99588.44;2614488;36;20046;-59
2023/01/15 07:59:54;;;;;;;8.33;1.30;;;;;;;5.64;100.00;99583.09;2615301;36;20038;-57
2023/01/15 08:02:23;;;;;;;8.65;1.67;;;;;;;5.70;100.00;99579.91;2613796;36;20739;-59
2023/01/15 08:04:51;;;;;;;10.88;1.75;;;;;;;5.62;100.00;99577.88;2615545;36;20436;-57
2023/01/15 08:07:23;;;;;;;6.85;1.55;;;;;;;5.68;100.00;99584.50;2614289;36;20582;-58
2023/01/15 08:09:51;;;;;;;5.88;1.08;;;;;;;5.65;100.00;99579.44;2615156;31;20065;-59
2023/01/15 08:17:43;;;;;;;5.95;1.13;;;;;;;5.79;100.00;99590.59;2611638;36;20026;-59
2023/01/15 08:20:15;;;;;;;7.78;1.20;;;;;;;5.86;100.00;99590.03;2614700;36;20026;-58
2023/01/15 08:22:47;;;;;;;9.32;2.03;;;;;;;5.96;100.00;99593.56;2615285;36;20069;-59
2023/01/15 08:25:17;;;;;;;9.45;1.20;;;;;;;6.06;100.00;99597.13;2614327;36;20030;-59
2023/01/15 08:27:45;;;;;;;8.40;1.38;;;;;;;5.99;100.00;99589.81;2614261;36;20038;-59
2023/01/15 08:30:17;;;;;;;8.57;1.77;;;;;;;6.03;100.00;99594.75;2614388;31;20408;-59
2023/01/15 08:32:45;;;;;;;9.13;1.25;;;;;;;6.13;100.00;99613.47;2612202;36;20031;-58
2023/01/15 08:35:15;;;;;;;7.05;1.10;;;;;;;5.89;100.00;99587.06;2614783;36;20904;-58
2023/01/15 08:37:46;;;;;;;5.35;1.27;;;;;;;5.86;100.00;99580.22;2614972;36;20571;-58
2023/01/15 08:40:15;;;;;;;9.13;2.30;;;;;;;5.82;100.00;99597.47;2614263;36;20057;-58
2023/01/15 08:42:43;;;;;;;7.97;1.95;;;;;;;5.95;100.00;99592.72;2614914;36;20149;-59
2023/01/15 08:45:13;;;;;;;7.88;1.40;;;;;;;5.99;100.00;99589.81;2614742;36;20038;-58
2023/01/15 08:47:41;;;;;;;5.72;0.93;;;;;;;6.02;100.00;99586.88;2613211;36;20049;-59
2023/01/15 08:50:12;;;;;;;4.03;0.90;;;;;;;6.13;100.00;99584.06;2614478;36;20498;-58
2023/01/15 08:52:40;;;;;;;8.52;1.25;;;;;;;6.23;100.00;99578.75;2615133;36;20089;-58
2023/01/15 08:55:11;;;;;;;10.35;2.10;;;;;;;6.29;100.00;99579.03;2614856;36;20566;-59
2023/01/15 08:57:40;;;;;;;7.30;1.23;;;;;;;6.35;100.00;99582.13;2614626;36;20847;-58
2023/01/15 09:00:10;;;;;;;4.50;0.93;;;;;;;6.40;100.00;99590.56;2614801;36;20031;-59
2023/01/15 09:02:38;;;;;;;12.38;1.67;;;;;;;6.34;100.00;99591.97;2611502;31;20042;-59
2023/01/15 09:05:07;;;;;;;9.10;1.73;;;;;;;6.26;100.00;99584.66;2614023;31;20037;-58
2023/01/15 09:07:36;;;;;;;7.72;1.52;;;;;;;6.14;100.00;99591.94;2612552;31;20042;-58
2023/01/15 09:10:05;;;;;;;6.38;1.70;;;;;;;6.18;100.00;99587.16;2611775;36;20077;-56
2023/01/15 09:12:36;;;;;;;9.43;1.20;;;;;;;6.04;100.00;99571.56;2614063;31;20041;-54
2023/01/15 09:15:05;;;;;;;7.25;1.40;;;;;;;6.08;100.00;99591.66;2613642;36;20045;-56
2023/01/15 09:17:39;;;;;;;8.55;1.20;;;;;;;6.02;100.00;99584.19;2613120;36;20628;-57
2023/01/15 09:20:13;;;;;;;7.55;1.60;;;;;;;6.08;100.00;99616.56;2613567;36;20026;-57
2023/01/15 09:22:42;;;;;;;6.82;1.40;;;;;;;6.04;100.00;99587.59;2612329;36;20034;-58
2023/01/15 09:25:11;;;;;;;9.93;2.17;;;;;;;6.23;100.00;99595.63;2614813;36;20046;-59
2023/01/15 09:27:42;;;;;;;13.25;2.13;;;;;;;6.35;100.00;99588.31;2614993;36;20423;-57
2023/01/15 09:30:16;;;;;;;13.10;1.83;;;;;;;6.45;100.00;99594.50;2613302;36;20038;-57
2023/01/15 09:32:44;;;;;;;7.03;1.60;;;;;;;6.57;100.00;99587.19;2613959;36;20149;-59
2023/01/15 09:35:13;;;;;;;9.38;1.25;;;;;;;6.85;100.00;99581.94;2613577;36;20878;-57
2023/01/15 09:37:41;;;;;;;7.73;1.10;;;;;;;6.84;100.00;99582.91;2614570;36;20034;-56
2023/01/15 09:40:25;;;;;;;7.80;1.30;;;;;;;7.00;100.00;99577.81;2614048;36;20041;-60
2023/01/15 09:43:01;;;;;;;8.73;1.27;;;;;;;6.94;100.00;99594.44;2615519;31;20061;-58
2023/01/15 09:45:38;;;;;;;8.27;1.55;;;;;;;6.86;100.00;99596.16;2615506;31;20470;-59
2023/01/15 09:48:21;;;;;;;9.23;1.90;;;;;;;6.78;100.00;99578.16;2612650;36;20581;-59
2023/01/15 09:51:03;;;;;;;6.63;1.45;;;;;;;6.80;100.00;99590.41;2614779;36;20157;-59
2023/01/15 09:53:54;;;;;;;5.80;1.42;;;;;;;6.95;100.00;99585.44;2614829;31;20045;-59
2023/01/15 09:56:26;;;;;;;13.18;1.85;;;;;;;6.82;100.00;99584.91;2613978;36;20049;-59
2023/01/15 09:59:00;;;;;;;7.47;1.48;;;;;;;6.95;100.00;99584.56;2614980;36;20026;-60
2023/01/15 10:01:32;;;;;;;12.70;1.52;;;;;;;7.17;100.00;99591.44;2615207;36;20035;-59
2023/01/15 10:04:07;;;;;;;5.75;1.70;;;;;;;7.12;100.00;99602.56;2613611;36;20038;-59
2023/01/15 10:06:41;;;;;;;8.63;1.85;;;;;;;7.08;100.00;99603.00;2613390;36;21755;-60
2023/01/15 10:09:16;;;;;;;12.35;1.85;;;;;;;7.23;100.00;99600.72;2613270;36;20038;-59
2023/01/15 10:14:45;;;;;;;7.22;1.30;;;;;;;7.11;100.00;99594.69;2614900;36;20118;-59
2023/01/15 10:17:38;;;;;;;7.97;1.67;;;;;;;7.17;100.00;99588.78;2615892;31;20706;-58
2023/01/15 10:20:14;;;;;;;8.13;1.63;;;;;;;7.22;100.00;99583.81;2616071;36;20130;-59
2023/01/15 10:22:58;;;;;;;4.10;1.30;;;;;;;7.11;100.00;99589.34;2616581;36;20042;-59
2023/01/15 10:25:33;;;;;;;7.63;1.40;;;;;;;7.00;100.00;99596.53;2616264;36;20034;-58
2023/01/15 10:28:11;;;;;;;9.23;1.60;;;;;;;6.89;100.00;99596.72;2615564;36;20072;-59
2023/01/15 10:30:48;;;;;;;6.40;1.65;;;;;;;6.53;100.00;99625.88;2615878;36;20034;-58
2023/01/15 10:33:32;;;;;;;9.27;1.50;;;;;;;6.35;100.00;99631.06;2614804;36;20038;-58
2023/01/15 10:36:06;;;;;;;12.75;2.13;;;;;;;6.26;100.00;99634.59;2614684;36;20109;-58
2023/01/15 10:38:40;;;;;;;10.38;3.13;;;;;;;6.25;100.00;99647.06;2614712;36;20035;-58
2023/01/15 10:41:26;;;;;;;5.72;1.17;;;;;;;6.26;100.00;99619.38;2615496;36;20022;-58
2023/01/15 10:44:00;;;;;;;11.60;1.50;;;;;;;6.05;100.00;99623.97;2614717;36;20034;-58
2023/01/15 10:46:37;;;;;;;14.38;1.58;;;;;;;6.32;100.00;99631.34;2614210;36;20038;-58
2023/01/15 10:49:07;;;;;;;8.65;1.60;;;;;;;6.35;100.00;99635.56;2612551;36;20035;-58
2023/01/15 10:51:42;;;;;;;14.10;2.42;;;;;;;6.31;100.00;99619.78;2613596;36;20062;-60
2023/01/15 10:54:20;;;;;;;9.45;2.17;;;;;;;6.25;100.00;99625.69;2614156;36;20548;-59
2023/01/15 10:57:00;;;;;;;7.18;1.60;;;;;;;6.39;100.00;99620.94;2614032;31;20035;-58
2023/01/15 10:59:38;;;;;;;16.13;2.33;;;;;;;6.37;100.00;99601.53;2614523;36;20049;-59
2023/01/15 11:02:24;;;;;;;10.85;1.95;;;;;;;6.65;100.00;99614.06;2613838;36;20061;-59
2023/01/15 11:04:53;;;;;;;9.93;2.08;;;;;;;6.88;100.00;99620.94;2614857;36;20042;-59
2023/01/15 11:07:23;;;;;;;11.98;1.98;;;;;;;7.02;100.00;99607.09;2613938;36;20027;-58
2023/01/15 11:09:52;;;;;;;8.27;1.77;;;;;;;6.99;100.00;99624.28;2613941;36;20035;-58
2023/01/15 11:20:46;;;;;;;8.15;2.05;;;;;;;6.98;100.00;99638.66;2614401;36;20043;-58
2023/01/15 11:23:17;;;;;;;8.77;1.50;;;;;;;7.05;100.00;99611.31;2613668;36;20571;-59
2023/01/15 11:25:51;;;;;;;6.68;1.45;;;;;;;7.05;100.00;99622.03;2614081;36;20451;-59
2023/01/15 11:28:20;;;;;;;9.00;1.67;;;;;;;7.10;100.00;99609.06;2613724;36;20038;-58
2023/01/15 11:30:58;;;;;;;15.60;1.40;;;;;;;7.08;100.00;99627.94;2614638;36;20069;-59
2023/01/15 11:33:30;;;;;;;8.25;1.70;;;;;;;7.09;100.00;99616.22;2613236;36;20594;-59
2023/01/15 11:36:01;;;;;;;6.35;1.35;;;;;;;7.07;100.00;99628.94;2613883;36;20101;-59
2023/01/15 11:38:31;;;;;;;7.20;1.30;;;;;;;7.00;100.00;99625.97;2613190;36;20030;-59
2023/01/15 11:41:04;;;;;;;9.32;1.52;;;;;;;6.94;100.00;99626.53;2615089;36;20037;-59
2023/01/15 11:51:59;;;;;;;10.93;1.77;;;;;;;6.88;100.00;99611.06;2615785;36;20668;-58
2023/01/15 11:54:28;;;;;;;9.23;1.30;;;;;;;6.93;100.00;99638.22;2615006;36;20050;-61
2023/01/15 11:56:57;;;;;;;7.50;1.50;;;;;;;6.91;100.00;99626.00;2615510;31;20034;-57
2023/01/15 11:59:27;;;;;;;8.95;1.38;;;;;;;7.01;100.00;99618.81;2616376;36;20117;-58
2023/01/15 12:01:59;;;;;;;8.05;1.75;;;;;;;6.82;100.00;99633.03;2614823;36;20039;-59
2023/01/15 12:04:36;;;;;;;9.43;2.95;;;;;;;6.74;100.00;99627.56;2613901;36;20532;-58
2023/01/15 12:07:06;;;;;;;8.77;1.95;;;;;;;6.67;100.00;99632.63;2614351;36;20076;-59
2023/01/15 12:09:55;;;;;;;11.98;1.88;;;;;;;6.63;100.00;99617.84;2614712;36;20105;-58
2023/01/15 12:12:36;;;;;;;11.75;1.88;;;;;;;6.71;100.00;99617.97;2615377;36;20135;-58
2023/01/15 12:15:14;;;;;;;5.43;1.30;;;;;;;6.73;100.00;99621.38;2615044;36;20049;-58
2023/01/15 12:18:03;;;;;;;8.75;1.60;;;;;;;6.79;100.00;99623.47;2614249;36;20038;-58
2023/01/15 12:20:50;;;;;;;9.75;1.52;;;;;;;6.79;100.00;99606.59;2615911;36;20467;-59
2023/01/15 12:23:39;;;;;;;8.15;1.95;;;;;;;6.82;100.00;99606.31;2615153;36;20565;-59
2023/01/15 12:26:19;;;;;;;9.52;1.95;;;;;;;6.94;100.00;99607.00;2614996;31;20027;-60
2023/01/15 12:28:56;;;;;;;9.50;2.00;;;;;;;7.15;100.00;99594.25;2615496;36;20553;-59
2023/01/15 12:31:30;;;;;;;9.27;1.80;;;;;;;7.27;100.00;99584.19;2616226;36;20121;-60
2023/01/15 12:34:06;;;;;;;9.68;1.50;;;;;;;7.28;100.00;99593.09;2616054;36;20034;-59
2023/01/15 12:36:43;;;;;;;6.80;1.60;;;;;;;7.08;100.00;99603.88;2616467;31;20053;-57
2023/01/15 12:39:20;;;;;;;10.13;1.90;;;;;;;6.99;100.00;99607.38;2615894;36;20038;-60
2023/01/15 12:47:26;;;;;;;8.18;1.80;;;;;;;6.76;100.00;99628.28;2616006;31;20557;-59
2023/01/15 12:50:02;;;;;;;9.15;1.70;;;;;;;6.84;100.00;99620.38;2614096;31;20034;-57
2023/01/15 12:52:38;;;;;;;12.20;2.28;;;;;;;6.70;100.00;99631.50;2615192;31;20031;-58
2023/01/15 12:55:15;;;;;;;6.00;1.98;;;;;;;6.69;100.00;99629.81;2614407;36;20424;-58